Weather at Kothmann Ranch Heliport

Public forecast

Using degrees Fahrenheit for public forecast. Weather courtesy of forecast.io.

Closest aviation weather report (METAR) to Kothmann Ranch Heliport

Closest report is Kimble County Airport, 21.5 nm (39.7 km) ESE.

2022/11/28 14:51 (retrieved 45 minutes ago)

KJCT 281451Z AUTO 26003KT 10SM CLR 04/02 A3003 RMK AO2 SLP156 T00390022 53009

Closest aviation forecast (TAF) to Kothmann Ranch Heliport

Closest forecast is Kimble County Airport, 21.5 nm (39.7 km) ESE.

2022/11/28 12:27 (retrieved 3 hours ago)

TAF KJCT 281124Z 2812/2912 VRB03KT P6SM SKC FM281600 19006KT P6SM SKC FM281800 20010G17KT P6SM SKC FM290000 18005KT P6SM SKC FM290800 19006KT P6SM BKN018